ボレ国際空港(アディスアベバ)の過去48時間の天気

ボレ国際空港(アディスアベバ) (Addis Ababa)

現在時刻: 9/28 12:13 EAT (9/28 09:13 UTC) 以下の時間は現地時間です。

過去48時間のMETAR気象情報
時間 風向 風速(m/s) 視程 気温(℃) 湿度(%) 気圧(hPa) 天気現象
28 11:00 東北東 7 10km以上 19 60 1026
28 10:00 7 10km以上 21 53 1027
28 08:00 4 10km以上 18 64 1026
28 07:00 北東 2 10km以上 14 88 1026
28 06:00 東北東 2 10km以上 14 88 1025
28 05:00 2 10km以上 14 88 1025
28 03:00 2 10km以上 14 88 1024
28 02:00 東北東 3 10km以上 14 88 1024
28 01:00 2 10km以上 15 82 1025
28 00:00 3 10km以上 15 82 1026
HAAB 280800Z 07014KT 9999 SCT025 19/11 Q1026
HAAB 280700Z 09013KT 9999 FEW025 21/11 Q1027
HAAB 280500Z 08008KT 9999 SCT025 18/11 Q1026
HAAB 280400Z 05004KT 9999 SCT025 14/12 Q1026
HAAB 280300Z 07004KT 9999 SCT025 14/12 Q1025
HAAB 280200Z 10004KT 9999 SCT025 14/12 Q1025
HAAB 280000Z 09004KT 9999 SCT025 14/12 Q1024
HAAB 272300Z 07006KT 9999 SCT025 14/12 Q1024
HAAB 272200Z 09004KT 9999 SCT025 15/12 Q1025
HAAB 272100Z 09006KT 9999 BKN025 SCT070 15/12 Q1026